Time;durP1;ratioP1;P1;durP2;ratioP2;P2;SDS_P1;SDS_P2;PMS_P1;PMS_P2;Temp;Humidity;BMP_temperature;BMP_pressure;BME280_temperature;BME280_humidity;BME280_pressure;Samples;Min_cycle;Max_cycle;Signal;HPM_P1;HPM_P2
2023/02/21 02:13:56;;;;;;;90.87;47.67;;;;;;;;;;4390269;32;388791;-80
2023/02/21 02:16:32;;;;;;;85.73;46.87;;;;;;;;;;4387832;32;317805;-79
2023/02/21 02:19:54;;;;;;;79.47;44.30;;;;;;;;;;4400325;32;317925;-79
2023/02/21 02:22:58;;;;;;;89.23;44.97;;;;;;;;;;4341624;32;417415;-79
2023/02/21 02:25:45;;;;;;;71.90;38.87;;;;;;;;;;4339638;32;317892;-78
2023/02/21 02:28:33;;;;;;;71.07;37.13;;;;;;;;;;4382600;32;318017;-78
2023/02/21 02:31:25;;;;;;;78.77;41.27;;;;;;;;;;4403077;32;317998;-78
2023/02/21 02:34:25;;;;;;;61.37;37.13;;;;;;;;;;4383309;32;418303;-79
2023/02/21 02:37:01;;;;;;;68.43;36.23;;;;;;;;;;4389500;32;418413;-80
2023/02/21 02:39:35;;;;;;;69.60;39.70;;;;;;;;;;4389138;32;421000;-79
2023/02/21 02:42:11;;;;;;;74.20;39.63;;;;;;;;;;4392809;32;317804;-78
2023/02/21 02:44:41;;;;;;;78.73;43.43;;;;;;;;;;4402033;32;317728;-78
2023/02/21 02:47:19;;;;;;;75.43;42.33;;;;;;;;;;4391165;32;317741;-78
2023/02/21 02:49:48;;;;;;;69.43;40.13;;;;;;;;;;4401433;32;324261;-79
2023/02/21 02:52:17;;;;;;;87.93;41.80;;;;;;;;;;4392247;32;318037;-80
2023/02/21 02:54:44;;;;;;;95.07;52.70;;;;;;;;;;4402616;32;317976;-79
2023/02/21 02:57:12;;;;;;;81.70;46.40;;;;;;;;;;4392147;32;317932;-78
2023/02/21 02:59:45;;;;;;;74.23;40.60;;;;;;;;;;4402065;32;317924;-81
2023/02/21 03:02:34;;;;;;;73.60;44.53;;;;;;;;;;4392363;32;317971;-80
2023/02/21 03:05:29;;;;;;;85.77;54.23;;;;;;;;;;4389610;32;364161;-81
2023/02/21 03:08:05;;;;;;;79.43;47.37;;;;;;;;;;4400689;32;318031;-80
2023/02/21 03:10:40;;;;;;;68.60;39.53;;;;;;;;;;4387999;32;418302;-80
2023/02/21 03:13:15;;;;;;;76.23;39.17;;;;;;;;;;4391614;32;317717;-79
2023/02/21 03:15:49;;;;;;;61.70;34.87;;;;;;;;;;4399847;32;318057;-79
2023/02/21 03:18:22;;;;;;;75.80;43.60;;;;;;;;;;4390752;32;317989;-79
2023/02/21 03:20:55;;;;;;;87.30;45.33;;;;;;;;;;4402347;32;317601;-80
2023/02/21 03:23:27;;;;;;;81.97;40.67;;;;;;;;;;4390029;32;317913;-79
2023/02/21 03:25:59;;;;;;;190.70;91.23;;;;;;;;;;4402293;32;318074;-80
2023/02/21 03:28:27;;;;;;;415.93;168.63;;;;;;;;;;4387135;32;419679;-79
2023/02/21 03:30:58;;;;;;;241.33;107.80;;;;;;;;;;4400514;32;319807;-79
2023/02/21 03:33:25;;;;;;;105.30;54.13;;;;;;;;;;4388653;32;320121;-79
2023/02/21 03:35:53;;;;;;;409.93;124.97;;;;;;;;;;4401926;32;318851;-79
2023/02/21 03:38:21;;;;;;;79.90;43.53;;;;;;;;;;4390027;32;319980;-81
2023/02/21 03:40:50;;;;;;;118.33;60.27;;;;;;;;;;4399795;32;317886;-80
2023/02/21 03:43:17;;;;;;;72.00;39.17;;;;;;;;;;4389157;32;318857;-79
2023/02/21 03:45:45;;;;;;;91.07;44.27;;;;;;;;;;4400950;32;317888;-79
2023/02/21 03:48:13;;;;;;;122.50;52.23;;;;;;;;;;4388564;32;318192;-79
2023/02/21 03:50:40;;;;;;;111.97;46.97;;;;;;;;;;4399963;32;319138;-79
2023/02/21 03:53:09;;;;;;;86.43;39.07;;;;;;;;;;4389687;32;319106;-79
2023/02/21 03:55:36;;;;;;;84.93;44.47;;;;;;;;;;4400468;32;317997;-79
2023/02/21 03:58:05;;;;;;;111.30;56.67;;;;;;;;;;4390590;32;317942;-79
2023/02/21 04:00:32;;;;;;;153.77;72.67;;;;;;;;;;4401084;32;318880;-80
2023/02/21 04:03:00;;;;;;;146.87;75.47;;;;;;;;;;4401502;32;318637;-80
2023/02/21 04:05:27;;;;;;;130.40;65.53;;;;;;;;;;4388444;32;418604;-79
2023/02/21 04:07:55;;;;;;;114.37;59.13;;;;;;;;;;4400762;32;318887;-79
2023/02/21 04:10:22;;;;;;;102.70;52.87;;;;;;;;;;4390526;32;318961;-79
2023/02/21 04:12:49;;;;;;;105.90;54.97;;;;;;;;;;4399567;32;318925;-81
2023/02/21 04:15:18;;;;;;;164.47;76.37;;;;;;;;;;4390836;32;319296;-78
2023/02/21 04:17:45;;;;;;;129.30;62.40;;;;;;;;;;4400290;32;318974;-78
2023/02/21 04:20:14;;;;;;;117.93;57.30;;;;;;;;;;4391525;32;318940;-78
2023/02/21 04:22:42;;;;;;;120.00;59.13;;;;;;;;;;4406797;32;318991;-82
2023/02/21 04:25:09;;;;;;;120.10;61.23;;;;;;;;;;4399938;32;318751;-81
2023/02/21 04:27:37;;;;;;;140.33;66.27;;;;;;;;;;4403728;32;318884;-78
2023/02/21 04:30:05;;;;;;;164.37;70.97;;;;;;;;;;4389634;32;319666;-80
2023/02/21 04:32:34;;;;;;;169.13;75.73;;;;;;;;;;4400488;32;318943;-80
2023/02/21 04:35:02;;;;;;;212.83;85.50;;;;;;;;;;4391078;32;318954;-81
2023/02/21 04:37:29;;;;;;;191.80;80.87;;;;;;;;;;4400198;32;319002;-80
2023/02/21 04:39:56;;;;;;;180.70;79.53;;;;;;;;;;4399788;32;317620;-78
2023/02/21 04:42:24;;;;;;;172.20;74.53;;;;;;;;;;4390899;32;319369;-79
2023/02/21 04:44:51;;;;;;;121.57;61.17;;;;;;;;;;4399846;32;318953;-78
2023/02/21 04:47:18;;;;;;;123.47;58.87;;;;;;;;;;4390707;32;318716;-79
2023/02/21 04:49:50;;;;;;;92.97;48.47;;;;;;;;;;4400633;32;319248;-80
2023/02/21 04:52:20;;;;;;;71.27;35.23;;;;;;;;;;4390194;32;317746;-80
2023/02/21 04:54:48;;;;;;;48.83;28.60;;;;;;;;;;4399457;32;317929;-81
2023/02/21 04:57:15;;;;;;;54.00;26.73;;;;;;;;;;4390063;32;318979;-78
2023/02/21 04:59:43;;;;;;;55.57;26.77;;;;;;;;;;4400699;32;317692;-79
2023/02/21 05:02:10;;;;;;;61.43;31.23;;;;;;;;;;4388213;32;317746;-79
2023/02/21 05:04:38;;;;;;;64.03;34.10;;;;;;;;;;4399602;32;317702;-79
2023/02/21 05:07:07;;;;;;;70.60;32.30;;;;;;;;;;4386968;32;317957;-78
2023/02/21 05:09:34;;;;;;;81.80;41.33;;;;;;;;;;4398944;32;354452;-78
2023/02/21 05:12:01;;;;;;;129.97;51.63;;;;;;;;;;4395110;32;317974;-79
2023/02/21 05:14:29;;;;;;;123.27;56.40;;;;;;;;;;4399979;32;318909;-78
2023/02/21 05:16:56;;;;;;;127.57;60.63;;;;;;;;;;4399592;32;351366;-79
2023/02/21 05:19:27;;;;;;;150.33;65.77;;;;;;;;;;4388921;32;319685;-78
2023/02/21 05:21:56;;;;;;;143.63;63.87;;;;;;;;;;4399949;32;319187;-78
2023/02/21 05:24:26;;;;;;;165.27;69.97;;;;;;;;;;4388940;32;319108;-78
2023/02/21 05:26:53;;;;;;;162.37;72.23;;;;;;;;;;4400465;32;318997;-78
2023/02/21 05:29:21;;;;;;;189.07;80.43;;;;;;;;;;4391399;32;319128;-80
2023/02/21 05:31:49;;;;;;;151.47;71.40;;;;;;;;;;4402455;32;318845;-78
2023/02/21 05:34:18;;;;;;;114.87;57.87;;;;;;;;;;4390618;32;352155;-79
2023/02/21 05:36:46;;;;;;;110.80;56.93;;;;;;;;;;4401724;32;318842;-80
2023/02/21 05:39:13;;;;;;;122.40;60.10;;;;;;;;;;4389267;32;319176;-78
2023/02/21 05:41:48;;;;;;;114.17;60.23;;;;;;;;;;4402634;32;318847;-80
2023/02/21 05:44:16;;;;;;;135.80;66.63;;;;;;;;;;4391081;32;318753;-81
2023/02/21 05:46:44;;;;;;;220.17;89.73;;;;;;;;;;4402372;32;318857;-79
2023/02/21 05:49:12;;;;;;;226.20;93.10;;;;;;;;;;4391228;32;318877;-78
2023/02/21 05:51:43;;;;;;;204.87;95.77;;;;;;;;;;4402735;32;319229;-79
2023/02/21 05:54:15;;;;;;;183.07;83.43;;;;;;;;;;4389428;32;319006;-78
2023/02/21 05:56:44;;;;;;;172.43;78.27;;;;;;;;;;4400802;32;318777;-79
2023/02/21 05:59:13;;;;;;;158.03;76.57;;;;;;;;;;4389354;32;318995;-79
2023/02/21 06:01:41;;;;;;;159.77;89.70;;;;;;;;;;4402493;32;319109;-80
2023/02/21 06:04:08;;;;;;;175.77;91.37;;;;;;;;;;4389661;32;318841;-79
2023/02/21 06:06:36;;;;;;;188.17;106.17;;;;;;;;;;4402185;32;318719;-79
2023/02/21 06:09:04;;;;;;;181.87;99.23;;;;;;;;;;4387774;32;320114;-79
2023/02/21 06:11:35;;;;;;;180.47;101.60;;;;;;;;;;4402193;32;318983;-80
2023/02/21 06:14:04;;;;;;;145.73;85.47;;;;;;;;;;4391612;32;319955;-79
2023/02/21 06:16:35;;;;;;;164.17;88.13;;;;;;;;;;4401472;32;318941;-79
2023/02/21 06:19:04;;;;;;;189.10;98.03;;;;;;;;;;4389502;32;318879;-79
2023/02/21 06:21:31;;;;;;;151.27;86.43;;;;;;;;;;4400135;32;318979;-81
2023/02/21 06:23:59;;;;;;;154.53;82.37;;;;;;;;;;4401027;32;319086;-81
2023/02/21 06:26:27;;;;;;;110.63;69.33;;;;;;;;;;4387765;32;419172;-78
2023/02/21 06:28:54;;;;;;;106.13;58.57;;;;;;;;;;4401500;32;318875;-78
2023/02/21 06:31:21;;;;;;;118.53;65.13;;;;;;;;;;4391076;32;318749;-81
2023/02/21 06:33:51;;;;;;;126.67;68.03;;;;;;;;;;4393426;32;319117;-78
2023/02/21 06:36:21;;;;;;;117.93;60.60;;;;;;;;;;4391633;32;318836;-79
2023/02/21 06:38:50;;;;;;;100.70;56.30;;;;;;;;;;4401833;32;318820;-76
2023/02/21 06:41:19;;;;;;;100.43;56.90;;;;;;;;;;4391407;32;319154;-77
2023/02/21 06:43:48;;;;;;;86.10;51.37;;;;;;;;;;4401254;32;318912;-78
2023/02/21 06:46:17;;;;;;;83.83;43.57;;;;;;;;;;4389255;32;317918;-77
2023/02/21 06:48:44;;;;;;;74.37;42.90;;;;;;;;;;4399496;32;317678;-78
2023/02/21 06:51:14;;;;;;;64.93;39.17;;;;;;;;;;4390662;32;318102;-75
2023/02/21 06:53:41;;;;;;;62.63;36.27;;;;;;;;;;4402049;32;318001;-79
2023/02/21 06:56:09;;;;;;;88.13;42.80;;;;;;;;;;4390196;32;318066;-77
2023/02/21 06:58:38;;;;;;;76.27;43.93;;;;;;;;;;4400616;32;317796;-81
2023/02/21 07:01:06;;;;;;;75.03;39.30;;;;;;;;;;4389088;32;317430;-80
2023/02/21 07:03:33;;;;;;;63.97;38.27;;;;;;;;;;4399340;32;317870;-80
2023/02/21 07:06:01;;;;;;;58.60;35.97;;;;;;;;;;4402344;32;316428;-82
2023/02/21 07:08:30;;;;;;;68.87;38.57;;;;;;;;;;4388851;32;387978;-82
2023/02/21 07:10:58;;;;;;;70.70;42.17;;;;;;;;;;4400595;32;316439;-84
2023/02/21 07:13:25;;;;;;;63.47;36.43;;;;;;;;;;4391656;32;317731;-81
2023/02/21 07:15:52;;;;;;;52.40;34.40;;;;;;;;;;4400684;32;317699;-79
2023/02/21 07:18:20;;;;;;;64.83;34.87;;;;;;;;;;4390651;32;317699;-80
2023/02/21 07:20:48;;;;;;;72.90;37.10;;;;;;;;;;4400366;32;317645;-80
2023/02/21 07:23:15;;;;;;;66.37;37.40;;;;;;;;;;4390410;32;330329;-82
2023/02/21 07:25:44;;;;;;;65.63;36.97;;;;;;;;;;4401077;32;317402;-80
2023/02/21 07:28:12;;;;;;;65.00;40.10;;;;;;;;;;4390873;32;317787;-80
2023/02/21 07:30:40;;;;;;;58.47;37.10;;;;;;;;;;4400879;32;317843;-80
2023/02/21 07:33:07;;;;;;;67.63;40.70;;;;;;;;;;4389986;32;343717;-83
2023/02/21 07:35:35;;;;;;;70.40;40.70;;;;;;;;;;4400530;32;317786;-80
2023/02/21 07:38:04;;;;;;;61.00;38.10;;;;;;;;;;4387155;32;317743;-82
2023/02/21 07:40:33;;;;;;;72.97;45.30;;;;;;;;;;4398671;32;332844;-80
2023/02/21 07:43:05;;;;;;;65.50;40.03;;;;;;;;;;4378453;32;317493;-79
2023/02/21 07:45:33;;;;;;;66.87;38.53;;;;;;;;;;4384701;32;420617;-81
2023/02/21 07:48:00;;;;;;;66.63;36.87;;;;;;;;;;4401167;32;317919;-80
2023/02/21 07:50:28;;;;;;;72.90;38.83;;;;;;;;;;4373590;32;417339;-80
2023/02/21 07:52:58;;;;;;;72.37;43.73;;;;;;;;;;4399465;32;317867;-82
2023/02/21 07:55:26;;;;;;;80.73;44.27;;;;;;;;;;4389104;32;317673;-82
2023/02/21 07:57:53;;;;;;;68.70;41.53;;;;;;;;;;4399504;32;328273;-80
2023/02/21 08:00:24;;;;;;;65.80;38.87;;;;;;;;;;4388740;32;317574;-80
2023/02/21 08:02:51;;;;;;;60.97;31.77;;;;;;;;;;4405509;32;317736;-82
2023/02/21 08:05:20;;;;;;;51.90;31.07;;;;;;;;;;4381701;32;317767;-83
2023/02/21 08:07:48;;;;;;;59.30;33.50;;;;;;;;;;4410641;32;317693;-80
2023/02/21 08:10:22;;;;;;;50.50;31.97;;;;;;;;;;4403963;32;317557;-82
2023/02/21 08:12:51;;;;;;;55.27;29.63;;;;;;;;;;4401461;32;338823;-80
2023/02/21 08:15:18;;;;;;;57.90;31.67;;;;;;;;;;4389385;32;317792;-81
2023/02/21 08:17:54;;;;;;;46.30;31.00;;;;;;;;;;4400560;32;317859;-81
2023/02/21 08:20:22;;;;;;;47.93;29.83;;;;;;;;;;4388225;32;317889;-80
2023/02/21 08:22:49;;;;;;;73.83;47.90;;;;;;;;;;4399549;32;317831;-82
2023/02/21 08:25:18;;;;;;;59.57;34.93;;;;;;;;;;4388871;32;317894;-80
2023/02/21 08:27:52;;;;;;;60.37;38.37;;;;;;;;;;4399755;32;317812;-81
2023/02/21 08:30:20;;;;;;;56.10;36.13;;;;;;;;;;4389076;32;317802;-80
2023/02/21 08:32:50;;;;;;;61.03;36.43;;;;;;;;;;4401652;32;318013;-82
2023/02/21 08:35:23;;;;;;;59.10;37.80;;;;;;;;;;4392907;32;317893;-79
2023/02/21 08:38:01;;;;;;;59.93;35.67;;;;;;;;;;4404883;32;317984;-79
2023/02/21 08:40:30;;;;;;;56.90;33.57;;;;;;;;;;4348016;32;389024;-80
2023/02/21 08:42:59;;;;;;;59.87;34.30;;;;;;;;;;4404729;32;317697;-81
2023/02/21 08:45:28;;;;;;;48.00;31.07;;;;;;;;;;4390543;32;317602;-83
2023/02/21 08:47:58;;;;;;;43.10;25.50;;;;;;;;;;4400331;32;316514;-81
2023/02/21 08:50:28;;;;;;;40.43;21.13;;;;;;;;;;4388570;32;317534;-83
2023/02/21 08:52:56;;;;;;;44.13;20.03;;;;;;;;;;4399703;32;317721;-81
2023/02/21 08:55:24;;;;;;;48.87;22.67;;;;;;;;;;4389271;32;317853;-80
2023/02/21 08:57:53;;;;;;;61.13;31.70;;;;;;;;;;4400321;32;317967;-80
2023/02/21 09:00:23;;;;;;;37.73;21.17;;;;;;;;;;4389129;32;317872;-81
2023/02/21 09:02:51;;;;;;;29.80;17.37;;;;;;;;;;4401221;32;316568;-80
2023/02/21 09:05:25;;;;;;;28.63;15.17;;;;;;;;;;4391915;32;317943;-81
2023/02/21 09:07:57;;;;;;;23.00;13.67;;;;;;;;;;4402239;32;317640;-81
2023/02/21 09:10:25;;;;;;;21.50;12.63;;;;;;;;;;4392201;32;324157;-80
2023/02/21 09:12:53;;;;;;;18.73;10.70;;;;;;;;;;4403627;32;318648;-81
2023/02/21 09:15:22;;;;;;;18.07;11.50;;;;;;;;;;4378409;32;339420;-81
2023/02/21 09:17:49;;;;;;;23.07;10.97;;;;;;;;;;4402722;32;319269;-82
2023/02/21 09:20:21;;;;;;;18.50;10.67;;;;;;;;;;4390816;32;318720;-81
2023/02/21 09:22:49;;;;;;;17.03;11.50;;;;;;;;;;4403517;32;317464;-80
2023/02/21 09:25:20;;;;;;;27.27;13.03;;;;;;;;;;4392433;32;334805;-81
2023/02/21 09:27:47;;;;;;;28.37;13.13;;;;;;;;;;4403012;32;318818;-80
2023/02/21 09:30:17;;;;;;;19.57;12.23;;;;;;;;;;4391226;32;319306;-80
2023/02/21 09:32:45;;;;;;;23.50;12.60;;;;;;;;;;4402234;32;318986;-80
2023/02/21 09:35:14;;;;;;;22.63;12.87;;;;;;;;;;4384809;32;319256;-80
2023/02/21 09:37:45;;;;;;;18.53;11.50;;;;;;;;;;4401706;32;317524;-82
2023/02/21 09:40:18;;;;;;;27.97;13.13;;;;;;;;;;4392913;32;318776;-81
2023/02/21 09:42:47;;;;;;;21.87;14.80;;;;;;;;;;4402995;32;317761;-82
2023/02/21 09:45:16;;;;;;;21.87;12.77;;;;;;;;;;4392955;32;317852;-80
2023/02/21 09:47:45;;;;;;;21.13;12.47;;;;;;;;;;4403016;32;317572;-80
2023/02/21 09:50:17;;;;;;;26.83;12.60;;;;;;;;;;4390063;32;359332;-80
2023/02/21 09:52:47;;;;;;;17.13;11.33;;;;;;;;;;4402187;32;318609;-79
2023/02/21 09:55:22;;;;;;;21.83;12.53;;;;;;;;;;4391237;32;318796;-80
2023/02/21 09:57:49;;;;;;;19.03;11.40;;;;;;;;;;4401990;32;318807;-82
2023/02/21 10:00:19;;;;;;;14.67;11.07;;;;;;;;;;4391109;32;318821;-81
2023/02/21 10:02:57;;;;;;;19.03;12.20;;;;;;;;;;4401540;32;317660;-82
2023/02/21 10:05:40;;;;;;;19.40;12.90;;;;;;;;;;4388947;32;346016;-80
2023/02/21 10:08:19;;;;;;;26.87;14.30;;;;;;;;;;4390922;32;318794;-82
2023/02/21 10:10:49;;;;;;;17.10;11.70;;;;;;;;;;4402409;32;318820;-82
2023/02/21 10:13:39;;;;;;;22.93;14.77;;;;;;;;;;4389860;32;319287;-81
2023/02/21 10:16:15;;;;;;;22.17;12.70;;;;;;;;;;4388385;32;359633;-80
2023/02/21 10:18:51;;;;;;;22.30;12.33;;;;;;;;;;4400163;32;318629;-82
2023/02/21 10:21:25;;;;;;;18.30;13.07;;;;;;;;;;4392598;32;318934;-82
2023/02/21 10:23:57;;;;;;;23.87;14.20;;;;;;;;;;4400411;32;318541;-80
2023/02/21 10:26:29;;;;;;;20.83;13.10;;;;;;;;;;4391802;32;317542;-82
2023/02/21 10:28:59;;;;;;;25.83;12.77;;;;;;;;;;4401333;32;353640;-82
2023/02/21 10:31:33;;;;;;;21.40;12.27;;;;;;;;;;4390868;32;319862;-83
2023/02/21 10:34:08;;;;;;;27.87;12.27;;;;;;;;;;4400694;32;319066;-81
2023/02/21 10:36:35;;;;;;;18.27;10.93;;;;;;;;;;4389705;32;418092;-81
2023/02/21 10:39:11;;;;;;;23.57;12.23;;;;;;;;;;4388642;32;318999;-83
2023/02/21 10:41:41;;;;;;;27.63;11.73;;;;;;;;;;4402754;32;318786;-81
2023/02/21 10:44:14;;;;;;;17.07;10.50;;;;;;;;;;4391518;32;318599;-80
2023/02/21 10:46:47;;;;;;;13.20;9.13;;;;;;;;;;4401927;32;318944;-82
2023/02/21 10:49:27;;;;;;;16.50;7.63;;;;;;;;;;4390780;32;318024;-80
2023/02/21 10:52:13;;;;;;;15.23;8.60;;;;;;;;;;4400047;32;317749;-80
2023/02/21 10:54:42;;;;;;;18.20;8.20;;;;;;;;;;4387973;32;420798;-81
2023/02/21 10:57:16;;;;;;;12.37;8.07;;;;;;;;;;4390643;32;317702;-82
2023/02/21 10:59:43;;;;;;;11.90;7.63;;;;;;;;;;4401993;32;317872;-82
2023/02/21 11:02:31;;;;;;;14.13;7.83;;;;;;;;;;4390151;32;317845;-80
2023/02/21 11:05:10;;;;;;;15.23;8.10;;;;;;;;;;4401967;32;317405;-81
2023/02/21 11:07:38;;;;;;;17.47;8.20;;;;;;;;;;4388383;32;418214;-82
2023/02/21 11:10:28;;;;;;;16.83;8.23;;;;;;;;;;4391186;32;317994;-81
2023/02/21 11:13:05;;;;;;;14.00;9.43;;;;;;;;;;4400786;32;317646;-82
2023/02/21 11:15:32;;;;;;;16.17;8.40;;;;;;;;;;4388833;32;388590;-80
2023/02/21 11:18:13;;;;;;;18.07;8.77;;;;;;;;;;4400087;32;317969;-81
2023/02/21 11:20:42;;;;;;;20.77;9.13;;;;;;;;;;4389080;32;388651;-82
2023/02/21 11:23:21;;;;;;;19.17;8.53;;;;;;;;;;4390674;32;317939;-80
2023/02/21 11:25:52;;;;;;;28.70;9.27;;;;;;;;;;4400804;32;317927;-81
2023/02/21 11:28:22;;;;;;;12.17;7.97;;;;;;;;;;4389148;32;317765;-82
2023/02/21 11:31:04;;;;;;;13.50;7.87;;;;;;;;;;4401647;32;317833;-83
2023/02/21 11:33:32;;;;;;;9.70;6.33;;;;;;;;;;4389266;32;388747;-81
2023/02/21 11:36:10;;;;;;;12.53;5.93;;;;;;;;;;4399349;32;316789;-80
2023/02/21 11:38:40;;;;;;;11.90;5.77;;;;;;;;;;4369187;32;387600;-82
2023/02/21 11:41:29;;;;;;;11.37;5.50;;;;;;;;;;4390996;32;317777;-81
2023/02/21 11:43:57;;;;;;;11.27;6.20;;;;;;;;;;4400730;32;317500;-80
2023/02/21 11:46:36;;;;;;;13.40;7.13;;;;;;;;;;4396965;32;325006;-80
2023/02/21 11:49:11;;;;;;;8.30;5.47;;;;;;;;;;4393628;32;317532;-81
2023/02/21 11:51:46;;;;;;;11.50;7.20;;;;;;;;;;4410161;32;316935;-83
2023/02/21 11:54:17;;;;;;;11.20;5.50;;;;;;;;;;4398397;32;317783;-81
2023/02/21 11:56:53;;;;;;;8.82;6.15;;;;;;;;;;4399291;32;317920;-81
2023/02/21 11:59:32;;;;;;;13.75;6.30;;;;;;;;;;4388617;32;316958;-80
2023/02/21 12:02:17;;;;;;;10.05;6.03;;;;;;;;;;4401418;32;317903;-83
2023/02/21 12:04:55;;;;;;;8.00;5.78;;;;;;;;;;4388294;32;417940;-82
2023/02/21 12:07:34;;;;;;;8.32;5.10;;;;;;;;;;4391162;32;317009;-82
2023/02/21 12:10:09;;;;;;;10.33;5.40;;;;;;;;;;4399616;32;316902;-82
2023/02/21 12:12:47;;;;;;;10.40;4.90;;;;;;;;;;4401271;32;317882;-80
2023/02/21 12:15:24;;;;;;;7.70;4.57;;;;;;;;;;4390505;32;317772;-81
2023/02/21 12:18:27;;;;;;;9.38;5.15;;;;;;;;;;4401221;32;316798;-82
2023/02/21 12:21:16;;;;;;;6.20;4.35;;;;;;;;;;4389788;32;387695;-81
2023/02/21 12:23:52;;;;;;;8.00;4.62;;;;;;;;;;4387386;32;417265;-83
2023/02/21 12:26:31;;;;;;;9.55;3.35;;;;;;;;;;4391302;32;316655;-81
2023/02/21 12:29:15;;;;;;;11.52;4.62;;;;;;;;;;4400612;32;316559;-81
2023/02/21 12:31:57;;;;;;;17.12;4.62;;;;;;;;;;4388193;32;417750;-83
2023/02/21 12:34:38;;;;;;;9.00;4.93;;;;;;;;;;4388875;32;317836;-80
2023/02/21 12:37:30;;;;;;;9.85;4.47;;;;;;;;;;4391813;32;316987;-81
2023/02/21 12:40:10;;;;;;;10.05;4.12;;;;;;;;;;4401802;32;317087;-82
2023/02/21 12:42:51;;;;;;;8.90;4.22;;;;;;;;;;4392729;32;418056;-81
2023/02/21 12:45:42;;;;;;;7.73;4.53;;;;;;;;;;4394437;32;340499;-81
2023/02/21 12:48:17;;;;;;;7.07;3.75;;;;;;;;;;4395376;32;316866;-81
2023/02/21 12:50:46;;;;;;;10.25;4.47;;;;;;;;;;4405504;32;316878;-81
2023/02/21 12:53:20;;;;;;;7.28;4.28;;;;;;;;;;4393745;32;317767;-81
2023/02/21 12:55:52;;;;;;;8.40;3.37;;;;;;;;;;4405803;32;316801;-81
2023/02/21 12:58:24;;;;;;;6.12;3.35;;;;;;;;;;4395925;32;316626;-80
2023/02/21 13:00:58;;;;;;;6.47;4.62;;;;;;;;;;4405565;32;316820;-79
2023/02/21 13:03:37;;;;;;;12.07;7.30;;;;;;;;;;4395138;32;316853;-82
2023/02/21 13:06:10;;;;;;;6.32;4.15;;;;;;;;;;4393604;32;318063;-81
2023/02/21 13:08:50;;;;;;;13.70;4.53;;;;;;;;;;4380282;32;316799;-81
2023/02/21 13:11:25;;;;;;;6.95;3.92;;;;;;;;;;4406996;32;317688;-82
2023/02/21 13:13:52;;;;;;;9.68;3.78;;;;;;;;;;4403769;32;316998;-79
2023/02/21 13:16:21;;;;;;;5.40;3.50;;;;;;;;;;4394315;32;316915;-81
2023/02/21 13:18:58;;;;;;;3.78;2.20;;;;;;;;;;4406100;32;316784;-80
2023/02/21 13:21:48;;;;;;;3.90;2.28;;;;;;;;;;4394666;32;316936;-82
2023/02/21 13:24:25;;;;;;;5.78;2.47;;;;;;;;;;4395537;32;316956;-80
2023/02/21 13:27:10;;;;;;;5.32;2.53;;;;;;;;;;4405130;32;316934;-80
2023/02/21 13:29:41;;;;;;;5.15;3.20;;;;;;;;;;4391713;32;417068;-80
2023/02/21 13:32:12;;;;;;;4.30;2.57;;;;;;;;;;4393432;32;316825;-80
2023/02/21 13:34:43;;;;;;;6.97;2.20;;;;;;;;;;4405386;32;316713;-80
2023/02/21 13:37:18;;;;;;;4.77;2.13;;;;;;;;;;4394420;32;317138;-82
2023/02/21 13:39:53;;;;;;;4.27;2.70;;;;;;;;;;4405623;32;316645;-80
2023/02/21 13:42:23;;;;;;;2.70;2.10;;;;;;;;;;4395212;32;316970;-80
2023/02/21 13:44:54;;;;;;;7.63;2.93;;;;;;;;;;4404741;32;324182;-79
2023/02/21 13:47:24;;;;;;;6.57;3.53;;;;;;;;;;4395348;32;316933;-79
2023/02/21 13:49:54;;;;;;;8.43;4.43;;;;;;;;;;4403220;32;316510;-82
2023/02/21 13:52:53;;;;;;;13.40;6.03;;;;;;;;;;4392284;32;317009;-81
2023/02/21 13:55:26;;;;;;;7.80;2.70;;;;;;;;;;4390765;32;317853;-80
2023/02/21 13:58:42;;;;;;;4.62;2.50;;;;;;;;;;4402595;32;316949;-81
2023/02/21 14:01:47;;;;;;;4.10;2.30;;;;;;;;;;4389699;32;416639;-84
2023/02/21 14:05:00;;;;;;;3.47;2.00;;;;;;;;;;4392587;32;316960;-81
2023/02/21 14:07:55;;;;;;;4.80;2.65;;;;;;;;;;4390147;32;416901;-82
2023/02/21 14:10:33;;;;;;;4.53;2.42;;;;;;;;;;4391630;32;316727;-81
2023/02/21 14:13:03;;;;;;;5.30;3.03;;;;;;;;;;4401823;32;316740;-79
2023/02/21 14:15:40;;;;;;;8.02;3.05;;;;;;;;;;4389255;32;416971;-79
2023/02/21 14:18:17;;;;;;;10.95;3.15;;;;;;;;;;4392254;32;316769;-80
2023/02/21 14:20:48;;;;;;;4.05;2.12;;;;;;;;;;4402242;32;317814;-81
2023/02/21 14:23:19;;;;;;;13.13;2.92;;;;;;;;;;4391454;32;316721;-82
2023/02/21 14:25:58;;;;;;;9.00;3.58;;;;;;;;;;4402439;32;317702;-80
2023/02/21 14:29:10;;;;;;;8.63;3.72;;;;;;;;;;4390981;32;317098;-80
2023/02/21 14:31:57;;;;;;;7.93;2.85;;;;;;;;;;4353677;32;420046;-80
2023/02/21 14:34:32;;;;;;;2.58;2.03;;;;;;;;;;4390487;32;316745;-80
2023/02/21 14:37:03;;;;;;;7.18;3.25;;;;;;;;;;4402588;32;316600;-80
2023/02/21 14:39:41;;;;;;;4.32;2.53;;;;;;;;;;4389013;32;417916;-82
2023/02/21 14:42:38;;;;;;;4.37;3.10;;;;;;;;;;4392537;32;316757;-80
2023/02/21 14:45:33;;;;;;;6.05;3.28;;;;;;;;;;4390781;32;316874;-80
2023/02/21 14:48:48;;;;;;;11.10;5.65;;;;;;;;;;4402155;32;317218;-80
2023/02/21 14:51:54;;;;;;;10.27;6.75;;;;;;;;;;4341550;32;389089;-81
2023/02/21 14:55:00;;;;;;;23.75;6.20;;;;;;;;;;4333648;32;318265;-78
2023/02/21 14:58:21;;;;;;;15.52;5.28;;;;;;;;;;4340443;32;418272;-85
2023/02/21 15:00:59;;;;;;;7.78;3.97;;;;;;;;;;4321595;32;389269;-87
2023/02/21 15:03:32;;;;;;;15.20;4.93;;;;;;;;;;4345125;32;317143;-85
2023/02/21 15:06:06;;;;;;;12.25;6.32;;;;;;;;;;4354950;32;317922;-85
2023/02/21 15:08:41;;;;;;;13.57;7.60;;;;;;;;;;4345865;32;418141;-84
2023/02/21 15:11:22;;;;;;;18.07;7.27;;;;;;;;;;4388698;32;318019;-84
2023/02/21 15:14:13;;;;;;;11.63;6.55;;;;;;;;;;4400881;32;317793;-84
2023/02/21 15:16:44;;;;;;;8.95;5.90;;;;;;;;;;4388420;32;418378;-87
2023/02/21 15:19:24;;;;;;;16.35;7.53;;;;;;;;;;4391102;32;334621;-84
2023/02/21 15:22:07;;;;;;;16.45;8.90;;;;;;;;;;4401231;32;317730;-84
2023/02/21 15:24:34;;;;;;;17.10;8.38;;;;;;;;;;4388065;32;418776;-85
2023/02/21 15:27:11;;;;;;;11.95;7.70;;;;;;;;;;4400717;32;317719;-84
2023/02/21 15:29:39;;;;;;;16.80;8.40;;;;;;;;;;4388830;32;417844;-84
2023/02/21 15:32:07;;;;;;;27.20;8.52;;;;;;;;;;4388478;32;317791;-87
2023/02/21 15:34:39;;;;;;;16.40;9.07;;;;;;;;;;4406866;32;317731;-78
2023/02/21 15:37:17;;;;;;;28.40;11.23;;;;;;;;;;4387697;32;318072;-78
2023/02/21 15:39:51;;;;;;;18.83;9.63;;;;;;;;;;4407756;32;318611;-80
2023/02/21 15:42:20;;;;;;;17.10;8.52;;;;;;;;;;4391714;32;317756;-77
2023/02/21 15:44:54;;;;;;;33.28;9.23;;;;;;;;;;4402224;32;318670;-80
2023/02/21 15:47:24;;;;;;;24.15;9.55;;;;;;;;;;4388900;32;318093;-80
2023/02/21 15:49:59;;;;;;;16.02;8.73;;;;;;;;;;4400573;32;318067;-81
2023/02/21 15:52:31;;;;;;;17.62;9.32;;;;;;;;;;4391134;32;317724;-81
2023/02/21 15:55:16;;;;;;;15.77;8.88;;;;;;;;;;4400417;32;317774;-79
2023/02/21 15:57:46;;;;;;;16.42;8.43;;;;;;;;;;4388694;32;418557;-79
2023/02/21 16:00:28;;;;;;;20.60;9.93;;;;;;;;;;4388103;32;353774;-80
2023/02/21 16:03:28;;;;;;;20.73;9.27;;;;;;;;;;4399863;32;350580;-80
2023/02/21 16:05:56;;;;;;;19.60;7.43;;;;;;;;;;4387096;32;421965;-80
2023/02/21 16:08:24;;;;;;;17.87;11.23;;;;;;;;;;4390688;32;318195;-82
2023/02/21 16:10:51;;;;;;;19.40;9.90;;;;;;;;;;4400660;32;318739;-80
2023/02/21 16:13:21;;;;;;;21.05;9.77;;;;;;;;;;4390031;32;317983;-78
2023/02/21 16:15:49;;;;;;;23.60;10.57;;;;;;;;;;4400610;32;317798;-78
2023/02/21 16:18:18;;;;;;;28.67;12.95;;;;;;;;;;4389686;32;319042;-81
2023/02/21 16:20:46;;;;;;;37.47;19.02;;;;;;;;;;4401548;32;319114;-74
2023/02/21 16:23:24;;;;;;;35.22;16.02;;;;;;;;;;4388580;32;318719;-79
2023/02/21 16:25:59;;;;;;;30.80;17.02;;;;;;;;;;4399670;32;318799;-80
2023/02/21 16:28:29;;;;;;;36.67;17.95;;;;;;;;;;4389716;32;319011;-80
2023/02/21 16:30:59;;;;;;;24.42;12.23;;;;;;;;;;4400175;32;318843;-78
2023/02/21 16:33:27;;;;;;;25.33;9.13;;;;;;;;;;4390453;32;318805;-81
2023/02/21 16:35:55;;;;;;;27.55;11.70;;;;;;;;;;4401144;32;317770;-80
2023/02/21 16:38:25;;;;;;;29.98;13.20;;;;;;;;;;4389666;32;318966;-78
2023/02/21 16:40:53;;;;;;;21.58;10.60;;;;;;;;;;4399142;32;319250;-78
2023/02/21 16:43:22;;;;;;;30.08;11.57;;;;;;;;;;4390651;32;319026;-78
2023/02/21 16:45:53;;;;;;;36.67;12.88;;;;;;;;;;4401355;32;318977;-78
2023/02/21 16:48:23;;;;;;;137.37;93.20;;;;;;;;;;4389192;32;319062;-80
2023/02/21 16:50:51;;;;;;;45.17;25.70;;;;;;;;;;4400980;32;319847;-79
2023/02/21 16:53:19;;;;;;;50.10;26.80;;;;;;;;;;4388750;32;319058;-82
2023/02/21 16:55:47;;;;;;;91.32;54.85;;;;;;;;;;4400908;32;319230;-78
2023/02/21 16:58:24;;;;;;;61.72;43.13;;;;;;;;;;4390419;32;318809;-77